createdAt,value
2023-01-20T00:03:53.616Z,-8.79
2023-01-20T00:09:01.625Z,-8.79
2023-01-20T00:14:08.232Z,-8.78
2023-01-20T00:19:17.917Z,-8.76
2023-01-20T00:24:23.221Z,-8.69
2023-01-20T00:29:28.396Z,-8.64
2023-01-20T00:34:33.504Z,-8.54
2023-01-20T00:39:39.495Z,-8.45
2023-01-20T00:44:45.353Z,-8.26
2023-01-20T00:49:51.258Z,-8.09
2023-01-20T00:54:56.320Z,-7.94
2023-01-20T01:00:01.748Z,-7.80
2023-01-20T01:05:09.482Z,-7.67
2023-01-20T01:10:14.579Z,-7.54
2023-01-20T01:15:19.942Z,-7.50
2023-01-20T01:20:25.703Z,-7.40
2023-01-20T01:25:30.795Z,-7.22
2023-01-20T01:30:35.761Z,-7.15
2023-01-20T01:35:40.730Z,-6.96
2023-01-20T01:40:51.242Z,-6.82
2023-01-20T01:45:57.085Z,-6.69
2023-01-20T01:51:30.051Z,-6.54
2023-01-20T01:56:36.560Z,-6.39
2023-01-20T02:01:46.681Z,-6.36
2023-01-20T02:07:01.075Z,-6.27
2023-01-20T02:12:12.468Z,-6.04
2023-01-20T02:17:23.140Z,-5.85
2023-01-20T02:22:39.189Z,-5.72
2023-01-20T02:28:06.101Z,-5.46
2023-01-20T02:33:43.054Z,-5.29
2023-01-20T02:39:03.279Z,-5.24
2023-01-20T02:44:22.154Z,-5.21
2023-01-20T02:49:46.786Z,-5.01
2023-01-20T02:54:55.411Z,-4.98
2023-01-20T03:00:11.970Z,-4.73
2023-01-20T03:05:22.630Z,-4.59
2023-01-20T03:10:31.413Z,-4.41
2023-01-20T03:15:51.337Z,-4.45
2023-01-20T03:20:57.590Z,-4.26
2023-01-20T03:26:06.389Z,-4.18
2023-01-20T03:31:26.845Z,-4.06
2023-01-20T03:36:33.524Z,-3.89
2023-01-20T03:41:56.300Z,-3.77
2023-01-20T03:47:30.759Z,-3.64
2023-01-20T03:52:52.928Z,-3.53
2023-01-20T03:57:57.438Z,-3.38
2023-01-20T04:03:06.854Z,-3.31
2023-01-20T04:08:14.003Z,-3.31
2023-01-20T04:13:18.779Z,-3.19
2023-01-20T04:18:25.354Z,-3.11
2023-01-20T04:23:47.093Z,-3.02
2023-01-20T04:28:51.684Z,-2.86
2023-01-20T04:33:57.145Z,-2.78
2023-01-20T04:39:01.680Z,-2.65
2023-01-20T04:44:06.310Z,-2.51
2023-01-20T04:49:12.350Z,-2.36
2023-01-20T04:54:17.951Z,-2.30
2023-01-20T04:59:22.569Z,-2.26
2023-01-20T05:04:27.195Z,-2.20
2023-01-20T05:09:32.902Z,-2.04
2023-01-20T05:14:37.731Z,-1.97
2023-01-20T05:19:42.299Z,-2.03
2023-01-20T05:24:46.839Z,-1.94
2023-01-20T05:29:51.449Z,-1.87
2023-01-20T05:34:55.992Z,-1.80
2023-01-20T05:40:00.668Z,-1.73
2023-01-20T05:45:05.660Z,-1.69
2023-01-20T05:50:09.974Z,-1.65
2023-01-20T05:55:14.710Z,-1.62
2023-01-20T06:00:20.069Z,-1.60
2023-01-20T06:05:24.277Z,-1.56
2023-01-20T06:10:31.586Z,-1.53
2023-01-20T06:15:36.151Z,-1.53
2023-01-20T06:20:41.922Z,-1.48
2023-01-20T06:25:46.390Z,-1.50
2023-01-20T06:30:50.971Z,-1.49
2023-01-20T06:35:56.545Z,-1.49
2023-01-20T06:41:08.260Z,-1.53
2023-01-20T06:46:17.841Z,-1.58
2023-01-20T06:51:22.830Z,-1.67
2023-01-20T06:56:27.439Z,-1.70
2023-01-20T07:01:33.316Z,-1.72
2023-01-20T07:06:40.747Z,-1.73
2023-01-20T07:11:45.326Z,-1.79
2023-01-20T07:16:50.405Z,-1.83
2023-01-20T07:21:55.153Z,-1.95
2023-01-20T07:26:59.761Z,-2.04
2023-01-20T07:32:04.256Z,-2.20
2023-01-20T07:37:08.885Z,-2.28
2023-01-20T07:42:14.575Z,-2.39
2023-01-20T07:47:21.042Z,-2.51
2023-01-20T07:52:25.668Z,-2.62
2023-01-20T07:57:34.745Z,-2.72
2023-01-20T08:02:40.229Z,-2.82
2023-01-20T08:07:44.764Z,-2.89
2023-01-20T08:12:49.302Z,-3.03
2023-01-20T08:17:58.310Z,-3.09
2023-01-20T08:23:03.418Z,-3.18
2023-01-20T08:28:08.906Z,-3.25
2023-01-20T08:33:13.946Z,-3.28
2023-01-20T08:38:21.913Z,-3.34
2023-01-20T08:43:26.999Z,-3.45
2023-01-20T08:48:31.819Z,-3.51
2023-01-20T08:53:37.215Z,-3.56
2023-01-20T08:58:42.317Z,-3.66
2023-01-20T09:03:59.272Z,-3.74
2023-01-20T09:09:09.567Z,-3.84
2023-01-20T09:14:14.381Z,-3.95
2023-01-20T09:19:20.383Z,-4.06
2023-01-20T09:24:26.522Z,-4.19
2023-01-20T09:29:31.621Z,-4.28
2023-01-20T09:34:36.950Z,-4.37
2023-01-20T09:40:00.110Z,-4.51
2023-01-20T09:45:26.049Z,-4.60
2023-01-20T09:51:06.567Z,-4.74
2023-01-20T09:56:17.829Z,-4.87
2023-01-20T10:01:41.814Z,-4.90
2023-01-20T10:07:02.230Z,-5.01
2023-01-20T10:12:35.548Z,-5.07
2023-01-20T10:18:10.583Z,-5.15
2023-01-20T10:23:30.745Z,-5.23
2023-01-20T10:28:43.039Z,-5.35
2023-01-20T10:33:49.642Z,-5.41
2023-01-20T10:39:04.071Z,-5.48
2023-01-20T10:44:15.866Z,-5.54
2023-01-20T10:49:38.215Z,-5.64
2023-01-20T10:55:20.982Z,-5.67
2023-01-20T11:00:29.083Z,-5.73
2023-01-20T11:05:42.763Z,-5.77
2023-01-20T11:10:51.144Z,-5.88
2023-01-20T11:16:04.266Z,-6.00
2023-01-20T11:21:13.396Z,-6.10
2023-01-20T11:26:37.547Z,-6.15
2023-01-20T11:31:53.080Z,-6.22
2023-01-20T11:37:06.944Z,-6.31
2023-01-20T11:42:19.282Z,-6.35
2023-01-20T11:47:30.901Z,-6.38
2023-01-20T11:52:39.863Z,-6.39
2023-01-20T11:57:53.587Z,-6.49
2023-01-20T12:03:28.638Z,-6.56
2023-01-20T12:08:36.665Z,-6.70
2023-01-20T12:14:16.589Z,-6.87
2023-01-20T12:19:28.813Z,-6.99
2023-01-20T12:25:09.399Z,-7.03
2023-01-20T12:30:40.820Z,-7.19
2023-01-20T12:36:09.239Z,-7.33
2023-01-20T12:41:46.441Z,-7.41
2023-01-20T12:47:07.864Z,-7.49
2023-01-20T12:52:25.004Z,-7.51
2023-01-20T12:57:33.349Z,-7.57
2023-01-20T13:02:45.030Z,-7.65
2023-01-20T13:08:26.475Z,-7.75
2023-01-20T13:13:56.824Z,-7.75
2023-01-20T13:19:19.148Z,-7.81
2023-01-20T13:24:30.552Z,-7.84
2023-01-20T13:29:59.332Z,-7.84
2023-01-20T13:35:27.399Z,-7.84
2023-01-20T13:40:38.430Z,-7.88
2023-01-20T13:45:44.583Z,-7.92
2023-01-20T13:50:51.568Z,-7.99
2023-01-20T13:55:59.384Z,-8.06
2023-01-20T14:01:10.347Z,-8.11
2023-01-20T14:06:15.703Z,-8.12
2023-01-20T14:11:24.683Z,-8.12
2023-01-20T14:16:29.727Z,-8.10
2023-01-20T14:21:42.825Z,-8.09
2023-01-20T14:26:48.053Z,-8.09
2023-01-20T14:31:53.084Z,-8.12
2023-01-20T14:37:19.747Z,-8.19
2023-01-20T14:42:27.094Z,-8.32
2023-01-20T14:47:34.996Z,-8.39
2023-01-20T14:52:40.797Z,-8.40
2023-01-20T14:57:46.210Z,-8.51
2023-01-20T15:03:09.243Z,-8.57
2023-01-20T15:08:26.445Z,-8.65
2023-01-20T15:13:32.711Z,-8.75
2023-01-20T15:18:37.670Z,-8.79
2023-01-20T15:23:45.099Z,-8.83
2023-01-20T15:28:50.755Z,-8.81
2023-01-20T15:33:56.606Z,-8.80
2023-01-20T15:39:01.704Z,-8.88
2023-01-20T15:44:06.717Z,-8.95
2023-01-20T15:49:16.285Z,-8.96
2023-01-20T15:54:21.481Z,-9.01
2023-01-20T15:59:27.205Z,-9.09
2023-01-20T16:04:32.967Z,-9.10
2023-01-20T16:09:40.049Z,-9.00
2023-01-20T16:14:45.923Z,-8.95
2023-01-20T16:19:51.731Z,-8.87
2023-01-20T16:24:56.578Z,-8.84
2023-01-20T16:30:01.315Z,-8.79
2023-01-20T16:35:06.624Z,-8.70
2023-01-20T16:40:20.205Z,-8.67
2023-01-20T16:45:31.788Z,-8.70
2023-01-20T16:50:37.334Z,-8.70
2023-01-20T16:55:46.291Z,-8.77
2023-01-20T17:00:51.085Z,-8.79
2023-01-20T17:05:58.652Z,-8.81
2023-01-20T17:11:03.166Z,-8.83
2023-01-20T17:16:08.163Z,-8.83
2023-01-20T17:21:14.752Z,-8.80
2023-01-20T17:26:21.028Z,-8.82
2023-01-20T17:31:26.375Z,-8.81
2023-01-20T17:36:32.736Z,-8.83
2023-01-20T17:41:37.331Z,-8.86
2023-01-20T17:46:42.370Z,-8.86
2023-01-20T17:51:46.985Z,-8.86
2023-01-20T17:56:51.642Z,-8.91
2023-01-20T18:01:57.414Z,-8.98
2023-01-20T18:07:01.978Z,-9.00
2023-01-20T18:12:06.871Z,-9.04
2023-01-20T18:17:11.444Z,-9.06
2023-01-20T18:22:17.291Z,-9.10
2023-01-20T18:27:21.914Z,-9.12
2023-01-20T18:32:28.743Z,-9.14
2023-01-20T18:37:34.286Z,-9.15
2023-01-20T18:42:38.868Z,-9.23
2023-01-20T18:47:43.510Z,-9.19
2023-01-20T18:52:48.087Z,-9.22
2023-01-20T18:57:52.689Z,-9.24
2023-01-20T19:02:57.781Z,-9.24
2023-01-20T19:08:02.289Z,-9.24
2023-01-20T19:13:07.915Z,-9.25
2023-01-20T19:18:11.986Z,-9.31
2023-01-20T19:23:16.034Z,-9.41
2023-01-20T19:28:21.316Z,-9.52
2023-01-20T19:33:25.899Z,-9.63
2023-01-20T19:38:32.587Z,-9.66
2023-01-20T19:43:38.229Z,-9.71
2023-01-20T19:48:43.684Z,-9.74
2023-01-20T19:53:49.756Z,-9.76
2023-01-20T19:58:56.405Z,-9.79
2023-01-20T20:04:05.556Z,-9.74
2023-01-20T20:09:13.769Z,-9.73
2023-01-20T20:14:22.043Z,-9.68
2023-01-20T20:19:27.930Z,-9.67
2023-01-20T20:24:32.468Z,-9.66
2023-01-20T20:29:37.169Z,-9.70
2023-01-20T20:34:41.877Z,-9.74
2023-01-20T20:39:47.960Z,-9.75
2023-01-20T20:44:52.553Z,-9.76
2023-01-20T20:49:58.211Z,-9.80
2023-01-20T20:55:02.817Z,-9.84
2023-01-20T21:00:08.550Z,-9.90
2023-01-20T21:05:13.127Z,-9.91
2023-01-20T21:10:18.727Z,-9.90
2023-01-20T21:15:23.499Z,-9.90
2023-01-20T21:20:28.135Z,-9.95
2023-01-20T21:25:34.099Z,-9.90
2023-01-20T21:30:40.867Z,-9.88
2023-01-20T21:35:47.351Z,-9.89
2023-01-20T21:41:04.591Z,-9.91
2023-01-20T21:46:09.458Z,-9.97
2023-01-20T21:51:50.813Z,-10.02
2023-01-20T21:56:55.363Z,-10.04
2023-01-20T22:02:00.170Z,-10.06
2023-01-20T22:07:04.815Z,-10.07
2023-01-20T22:12:10.220Z,-10.09
2023-01-20T22:17:14.875Z,-10.10
2023-01-20T22:22:21.136Z,-10.13
2023-01-20T22:27:26.669Z,-10.15
2023-01-20T22:32:31.461Z,-10.20
2023-01-20T22:37:36.028Z,-10.28
2023-01-20T22:42:40.614Z,-10.30
2023-01-20T22:47:45.268Z,-10.35
2023-01-20T22:52:50.339Z,-10.36
2023-01-20T22:57:55.106Z,-10.40
2023-01-20T23:02:59.835Z,-10.49
2023-01-20T23:08:04.405Z,-10.49
2023-01-20T23:13:09.150Z,-10.60
2023-01-20T23:18:14.095Z,-10.60
2023-01-20T23:23:18.873Z,-10.64
2023-01-20T23:28:23.378Z,-10.64
2023-01-20T23:33:28.325Z,-10.64
2023-01-20T23:38:33.352Z,-10.71
2023-01-20T23:43:38.028Z,-10.71
2023-01-20T23:48:42.690Z,-10.72
2023-01-20T23:53:47.226Z,-10.69
2023-01-20T23:58:52.619Z,-10.65
